Meath Environmental Platform

Observations for Trim Patrick St

Time AQI Temp °C Hum % Pres Pa CO μg/m³ H₂S μg/m³ NO μg/m³ NO₂ μg/m³ O₃ μg/m³ SO₂ μg/m³ PM1 μg/m³ PM2.5 μg/m³ PM10 μg/m³
Saturday 8 August 2026
01:34 2 14.5 73 38,460 0.24 0.6 3.23 14.73 17.75 0 5.43 10.68 11.75
01:33 2 14.5 73 38,460 0.25 1.04 3.31 31.34 9.95 0 5.43 8.55 9.41
01:31 2 14.5 72 38,460 0.24 2.96 3.27 17.35 15.91 0 5.43 10.08 11.09
01:30 2 14.5 72 38,460 0.24 5.74 3.31 33.43 15.44 0 5.43 10.72 11.79
01:25 2 14.4 73 38,460 0.24 3.51 3.33 16.03 18.52 0 5.43 10.69 11.76
01:24 2 14.4 73 38,460 0.25 5.66 3.33 47.86 7.6 0 5.43 9.25 10.18
01:23 2 14.4 73 38,460 0.25 1.48 3.34 21.37 16.91 0 6.29 9.97 10.96
01:21 2 14.4 73 38,460 0.24 1.35 3.33 18.12 17.89 0 5.43 9.25 10.18
01:20 2 14.4 73 38,460 0.25 1.51 3.33 18.14 19.39 0 5.43 9.24 10.17
01:19 2 14.4 73 38,460 0.25 3.04 3.33 19.75 20.15 0 5.43 9.24 10.16
01:18 2 14.3 73 38,460 0.25 1.92 3.36 24.07 15.77 0 4.57 8.51 9.36
01:17 2 14.4 74 38,460 0.24 2.08 3.34 21.46 16.52 0 4.57 9.21 10.13
01:15 2 14.3 74 38,460 0.26 3.4 3.37 29.82 13.61 0 5.43 9.93 10.92
01:14 2 14.3 74 38,460 0.24 1.82 3.36 19.88 19.55 0 5.43 9.92 10.91
01:13 2 14.3 74 38,460 0.24 2.54 3.37 25 16.9 0 5.43 9.92 10.91
01:12 2 14.3 74 38,460 0.24 2.54 3.36 13.79 25.37 0 4.57 8.49 9.34
01:11 2 14.3 74 38,460 0.25 4.41 3.36 33.34 13.82 0 4.57 8.49 9.34
01:10 2 14.3 74 38,460 0.24 3.58 3.35 25.43 17.11 0 5.43 9.93 10.92
01:09 2 14.3 74 38,460 0.25 4 3.29 24.09 17.08 0 4.57 9.21 10.13
01:08 2 14.2 74 38,460 0.24 4.31 3.32 31.66 13.1 0 4.57 9.21 10.13